Briefing drone pour Grenoble (LFLS)

Rechercher une autre localisation

Conditions de vol :


Nous sommes le : Vendredi 04 décembre 2020
Il est 20:12 UTC (21:12 LT)

Lever de soleil : 06:33 UTC (07:33 LT)
Coucher de soleil : 16:21 UTC (17:21 LT)

Météo

L'essentiel des conditions de vol

VIGILANCE MÉTÉO FRANCE - Isère (38)
Vigilance Jaune : Neige-verglas / Avalanches
METAR de LFLS
LFLS 042000Z AUTO 08008KT 9999 -SN FEW014 BKN027 OVC032 01/00 Q0991 NOSIG

Date d'émission: 04/12/2020
Heure d'émission: 20:00 UTC
Vent: 080° pour 8 KT (15 km/h)
Visibilité horizontale: > 10 km
Plafond :
- Peu de nuages à 1400ft (427m)
- Nuages morcelés à 2700ft (823m)
- Couvert à 3200ft (975m)
Température: 1 °C
Point de rosée: 0 °C
Humidité: 93%
Pression (QNH): 991 hPa
Conditions: Faible chute de neige, Pas de changement dans les 2 heures (NOSIG)
TAF de LFLS
LFLS 042004Z 0420/0515 CNL

Conditions prévues :

Heure d'émission : Bulletin éffectué le 04 à 20:00 UTC
Prévision : Valide du 04 a 20:00 UTC au 05 a 15:00 UTC
Nuages : à 0ft (0 m)
WEBCAM POUR GRENOBLE

Réglementation

Voler en sécurité

CARTES AERONAUTIQUE 1/500.000
CARTES VAC (LFLS)
SUP AIP




Chargement des AIP...
NOTAM (GRENOBLE + Terrain à proximité / FIR )




Chargement des NOTAMS...
CONTACT PREFECTURE 38


Avertissement : Les données mises à disposition sont indicatives. Oxygène Drone ne pourra être tenu responsable de dégâts causés aux biens et aux personnes.